Time;durP1;ratioP1;P1;durP2;ratioP2;P2;SDS_P1;SDS_P2;PMS_P1;PMS_P2;Temp;Humidity;BMP_temperature;BMP_pressure;BME280_temperature;BME280_humidity;BME280_pressure;Samples;Min_cycle;Max_cycle;Signal;HPM_P1;HPM_P2
2023/05/14 00:01:51;;;;;;;13.05;9.05;;;16.20;99.90;;;;;;4879071;29;20102;-94
2023/05/14 00:04:18;;;;;;;11.50;8.77;;;16.10;99.90;;;;;;4871617;29;20386;-94
2023/05/14 00:06:44;;;;;;;11.27;8.82;;;16.10;99.90;;;;;;4846215;29;20085;-95
2023/05/14 00:09:11;;;;;;;12.93;8.93;;;16.10;99.90;;;;;;4845381;29;20050;-94
2023/05/14 00:11:36;;;;;;;11.90;9.10;;;16.00;99.90;;;;;;4860121;29;20444;-95
2023/05/14 00:14:02;;;;;;;12.80;9.25;;;16.00;99.90;;;;;;4859045;29;20081;-95
2023/05/14 00:16:28;;;;;;;12.85;9.60;;;16.00;99.90;;;;;;4847697;29;20394;-95
2023/05/14 00:18:53;;;;;;;12.85;9.63;;;15.90;99.90;;;;;;4844122;29;20046;-94
2023/05/14 00:21:19;;;;;;;13.50;9.10;;;15.90;99.90;;;;;;4853110;29;20155;-95
2023/05/14 00:23:45;;;;;;;13.82;9.45;;;15.90;99.90;;;;;;4843863;29;20058;-95
2023/05/14 00:26:10;;;;;;;13.98;9.15;;;15.80;99.90;;;;;;4855371;29;20089;-94
2023/05/14 00:28:36;;;;;;;15.05;9.60;;;15.80;99.90;;;;;;4862276;29;20057;-94
2023/05/14 00:31:02;;;;;;;15.00;9.70;;;15.80;99.90;;;;;;4850239;29;20185;-94
2023/05/14 00:33:27;;;;;;;13.43;10.52;;;15.70;99.90;;;;;;4843321;29;20148;-95
2023/05/14 00:35:53;;;;;;;12.90;10.27;;;15.70;99.90;;;;;;4853070;29;20061;-95
2023/05/14 00:38:18;;;;;;;13.93;9.98;;;15.70;99.90;;;;;;4843395;29;20046;-94
2023/05/14 00:40:49;;;;;;;13.55;10.05;;;15.70;99.90;;;;;;4849775;29;20045;-94
2023/05/14 00:43:25;;;;;;;13.60;10.60;;;15.70;99.90;;;;;;4861723;29;20506;-93
2023/05/14 00:45:52;;;;;;;13.90;9.60;;;15.70;99.90;;;;;;4861477;29;20045;-94
2023/05/14 00:48:18;;;;;;;13.23;10.18;;;15.70;99.90;;;;;;4861118;29;20053;-95
2023/05/14 00:50:43;;;;;;;14.27;10.50;;;15.70;99.90;;;;;;4850747;29;20057;-95
2023/05/14 00:53:10;;;;;;;12.82;9.75;;;15.60;99.90;;;;;;4843882;29;20046;-94
2023/05/14 00:55:37;;;;;;;14.07;10.35;;;15.60;99.90;;;;;;4843893;29;20084;-94
2023/05/14 00:58:09;;;;;;;12.88;9.48;;;15.60;99.90;;;;;;4844121;29;20038;-94
2023/05/14 01:00:35;;;;;;;13.45;9.68;;;15.50;99.90;;;;;;4846408;29;20050;-95
2023/05/14 01:03:02;;;;;;;13.35;10.57;;;15.50;99.90;;;;;;4843859;29;20041;-94
2023/05/14 01:05:50;;;;;;;13.90;10.40;;;15.40;99.90;;;;;;4874358;29;20132;-92
2023/05/14 01:08:37;;;;;;;14.48;10.43;;;15.40;99.90;;;;;;4821461;29;20511;-94
2023/05/14 01:11:40;;;;;;;13.48;10.23;;;15.30;99.90;;;;;;4830202;29;20094;-94
2023/05/14 01:14:33;;;;;;;13.68;10.38;;;15.30;99.90;;;;;;4842584;29;20058;-94
2023/05/14 01:17:01;;;;;;;14.45;10.02;;;15.30;99.90;;;;;;4847305;29;20399;-94
2023/05/14 01:19:32;;;;;;;12.98;9.70;;;15.20;99.90;;;;;;4846238;29;20555;-95
2023/05/14 01:21:58;;;;;;;12.13;9.45;;;15.20;99.90;;;;;;4860563;29;20049;-93
2023/05/14 01:24:23;;;;;;;11.88;9.60;;;15.30;99.90;;;;;;4862246;29;20053;-94
2023/05/14 01:26:50;;;;;;;16.05;10.02;;;15.20;99.90;;;;;;4860865;29;20046;-93
2023/05/14 01:29:21;;;;;;;12.75;9.00;;;15.10;99.90;;;;;;4859972;29;20053;-94
2023/05/14 01:31:49;;;;;;;13.98;9.93;;;15.20;99.90;;;;;;4855644;29;20045;-94
2023/05/14 01:34:18;;;;;;;12.65;9.35;;;15.20;99.90;;;;;;4856395;29;20133;-94
2023/05/14 01:36:45;;;;;;;12.70;9.30;;;15.10;99.90;;;;;;4843003;29;20089;-94
2023/05/14 01:39:12;;;;;;;12.57;9.55;;;15.10;99.90;;;;;;4848984;29;20037;-95
2023/05/14 01:41:38;;;;;;;14.02;9.20;;;15.10;99.90;;;;;;4858636;29;20132;-93
2023/05/14 01:44:04;;;;;;;12.98;9.30;;;15.10;99.90;;;;;;4843717;29;20054;-94
2023/05/14 01:46:31;;;;;;;12.32;8.73;;;15.00;99.90;;;;;;4843573;29;20061;-95
2023/05/14 01:48:57;;;;;;;12.40;9.60;;;15.00;99.90;;;;;;4843671;29;20050;-94
2023/05/14 01:51:22;;;;;;;13.18;9.20;;;14.90;99.90;;;;;;4842157;29;20038;-94
2023/05/14 01:53:48;;;;;;;13.77;8.75;;;14.90;99.90;;;;;;4858774;29;20053;-95
2023/05/14 01:56:14;;;;;;;13.18;8.80;;;14.90;99.90;;;;;;4860915;29;20510;-94
2023/05/14 01:58:39;;;;;;;10.82;8.90;;;14.80;99.90;;;;;;4856614;29;20086;-95
2023/05/14 02:01:05;;;;;;;12.18;8.80;;;14.80;99.90;;;;;;4860482;29;20048;-95
2023/05/14 02:03:30;;;;;;;13.00;9.07;;;14.80;99.90;;;;;;4842570;29;20503;-94
2023/05/14 02:05:56;;;;;;;11.75;8.15;;;14.70;99.90;;;;;;4860398;29;20037;-94
2023/05/14 02:08:21;;;;;;;14.02;8.60;;;14.70;99.90;;;;;;4849655;29;20558;-95
2023/05/14 02:10:47;;;;;;;12.82;8.50;;;14.60;99.90;;;;;;4842664;29;20089;-94
2023/05/14 02:13:13;;;;;;;10.52;7.78;;;14.60;99.90;;;;;;4843095;29;20042;-94
2023/05/14 02:15:39;;;;;;;9.32;8.07;;;14.50;99.90;;;;;;4847983;29;20037;-95
2023/05/14 02:18:04;;;;;;;13.02;8.00;;;14.50;99.90;;;;;;4854038;29;20061;-94
2023/05/14 02:20:30;;;;;;;11.90;8.25;;;14.40;99.90;;;;;;4842076;29;20406;-94
2023/05/14 02:22:56;;;;;;;11.48;7.88;;;14.40;99.90;;;;;;4847363;29;20050;-95
2023/05/14 02:25:21;;;;;;;8.88;6.95;;;14.30;99.90;;;;;;4861406;29;20046;-94
2023/05/14 02:27:47;;;;;;;12.43;8.40;;;14.30;99.90;;;;;;4858213;29;20054;-94
2023/05/14 02:30:12;;;;;;;10.55;8.25;;;14.20;99.90;;;;;;4859296;29;20044;-94
2023/05/14 02:32:38;;;;;;;11.43;7.85;;;14.20;99.90;;;;;;4844242;29;20045;-93
2023/05/14 02:35:04;;;;;;;16.30;7.50;;;14.10;99.90;;;;;;4861671;29;20049;-93
2023/05/14 02:37:33;;;;;;;11.63;8.02;;;14.10;99.90;;;;;;4861646;29;20061;-94
2023/05/14 02:39:59;;;;;;;12.57;8.02;;;14.00;99.90;;;;;;4841491;29;20050;-94
2023/05/14 02:42:24;;;;;;;10.68;7.75;;;14.00;99.90;;;;;;4842738;29;20513;-93
2023/05/14 02:44:51;;;;;;;12.23;7.80;;;13.90;99.90;;;;;;4842812;29;20527;-94
2023/05/14 02:47:17;;;;;;;12.20;8.68;;;13.90;99.90;;;;;;4859323;29;20124;-94
2023/05/14 02:49:42;;;;;;;12.02;7.65;;;13.80;99.90;;;;;;4850502;29;20072;-95
2023/05/14 02:52:08;;;;;;;13.18;8.30;;;13.80;99.90;;;;;;4841645;29;20126;-95
2023/05/14 02:54:34;;;;;;;9.98;8.23;;;13.80;99.90;;;;;;4872153;29;20050;-94
2023/05/14 02:56:59;;;;;;;10.10;7.40;;;13.80;99.90;;;;;;4841659;29;20042;-93
2023/05/14 02:59:26;;;;;;;10.05;7.70;;;13.70;99.90;;;;;;4852744;29;20056;-94
2023/05/14 03:01:51;;;;;;;9.98;7.80;;;13.70;99.90;;;;;;4845565;29;20064;-94
2023/05/14 03:04:17;;;;;;;11.52;7.45;;;13.70;99.90;;;;;;4843176;29;20125;-94
2023/05/14 03:06:43;;;;;;;10.80;7.32;;;13.70;99.90;;;;;;4842323;29;20085;-94
2023/05/14 03:09:08;;;;;;;9.68;7.32;;;13.60;99.90;;;;;;4850380;29;20048;-95
2023/05/14 03:11:37;;;;;;;10.75;7.47;;;13.60;99.90;;;;;;4861044;29;20053;-93
2023/05/14 03:14:03;;;;;;;12.60;8.13;;;13.60;99.90;;;;;;4864210;29;20052;-94
2023/05/14 03:16:28;;;;;;;14.48;6.75;;;13.60;99.90;;;;;;4852232;29;20137;-94
2023/05/14 03:18:54;;;;;;;10.70;7.60;;;13.60;99.90;;;;;;4845718;29;20075;-95
2023/05/14 03:21:19;;;;;;;8.50;6.78;;;13.60;99.90;;;;;;4844780;29;20088;-95
2023/05/14 03:23:45;;;;;;;11.13;7.35;;;13.60;99.90;;;;;;4844195;29;20038;-94
2023/05/14 03:26:11;;;;;;;11.18;6.60;;;13.60;99.90;;;;;;4844638;29;20046;-94
2023/05/14 03:28:36;;;;;;;10.18;6.68;;;13.50;99.90;;;;;;4844238;29;20050;-94
2023/05/14 03:31:02;;;;;;;11.18;7.05;;;13.50;99.90;;;;;;4855850;29;20042;-94
2023/05/14 03:33:28;;;;;;;11.05;6.78;;;13.50;99.90;;;;;;4844529;29;20058;-95
2023/05/14 03:35:53;;;;;;;10.13;7.15;;;13.50;99.90;;;;;;4861636;29;20423;-94
2023/05/14 03:38:19;;;;;;;8.48;6.32;;;13.40;99.90;;;;;;4862753;29;20052;-94
2023/05/14 03:40:45;;;;;;;8.48;6.43;;;13.40;99.90;;;;;;4862537;29;20042;-94
2023/05/14 03:43:10;;;;;;;9.73;6.55;;;13.40;99.90;;;;;;4862951;29;20049;-94
2023/05/14 03:45:36;;;;;;;9.48;6.35;;;13.40;99.90;;;;;;4853892;29;20038;-95
2023/05/14 03:48:02;;;;;;;8.57;6.57;;;13.40;99.90;;;;;;4834233;29;20050;-94
2023/05/14 03:50:27;;;;;;;9.35;6.68;;;13.40;99.90;;;;;;4854582;29;20105;-95
2023/05/14 03:52:53;;;;;;;10.05;6.57;;;13.30;99.90;;;;;;4863405;29;20041;-94
2023/05/14 03:55:20;;;;;;;10.40;5.82;;;13.30;99.90;;;;;;4858440;29;20073;-94
2023/05/14 03:57:47;;;;;;;10.07;6.22;;;13.30;99.90;;;;;;4862636;29;20045;-94
2023/05/14 04:00:14;;;;;;;8.80;5.95;;;13.30;99.90;;;;;;4851517;29;20140;-95
2023/05/14 04:02:41;;;;;;;10.13;6.20;;;13.30;99.90;;;;;;4844797;29;20133;-95
2023/05/14 04:05:06;;;;;;;8.32;6.88;;;13.30;99.90;;;;;;4844262;29;20056;-95
2023/05/14 04:07:32;;;;;;;11.32;6.28;;;13.20;99.90;;;;;;4845087;29;20042;-94
2023/05/14 04:09:58;;;;;;;8.77;6.10;;;13.20;99.90;;;;;;4845172;29;20042;-93
2023/05/14 04:12:25;;;;;;;8.32;5.93;;;13.20;99.90;;;;;;4844149;29;20046;-95
2023/05/14 04:14:51;;;;;;;8.88;6.15;;;13.10;99.90;;;;;;4843055;29;20495;-94
2023/05/14 04:17:17;;;;;;;10.38;5.97;;;13.10;99.90;;;;;;4844358;29;20053;-93
2023/05/14 04:19:42;;;;;;;9.02;5.85;;;13.10;99.90;;;;;;4843420;29;20494;-95
2023/05/14 04:22:08;;;;;;;8.25;5.60;;;13.10;99.90;;;;;;4843544;29;20042;-95
2023/05/14 04:24:34;;;;;;;10.68;6.43;;;13.10;99.90;;;;;;4842350;29;20075;-94
2023/05/14 04:26:59;;;;;;;10.90;6.00;;;13.10;99.90;;;;;;4844248;29;20163;-94
2023/05/14 04:29:25;;;;;;;9.05;5.90;;;13.00;99.90;;;;;;4843875;29;20411;-94
2023/05/14 04:31:50;;;;;;;6.95;5.38;;;13.00;99.90;;;;;;4843167;29;20058;-95
2023/05/14 04:34:16;;;;;;;12.52;6.63;;;12.90;99.90;;;;;;4844524;29;20069;-94
2023/05/14 04:36:42;;;;;;;10.40;6.50;;;13.00;99.90;;;;;;4843639;29;20084;-94
2023/05/14 04:39:11;;;;;;;11.65;7.05;;;13.00;99.90;;;;;;4844419;29;20132;-94
2023/05/14 04:41:36;;;;;;;14.32;7.47;;;13.00;99.90;;;;;;4842940;29;20514;-94
2023/05/14 04:44:02;;;;;;;10.40;6.95;;;12.90;99.90;;;;;;4844256;29;20042;-93
2023/05/14 04:46:28;;;;;;;10.75;7.10;;;12.90;99.90;;;;;;4842769;29;20411;-93
2023/05/14 04:48:53;;;;;;;15.40;9.07;;;12.90;99.90;;;;;;4842732;29;20081;-93
2023/05/14 04:51:19;;;;;;;11.55;6.95;;;12.90;99.90;;;;;;4843247;29;20507;-93
2023/05/14 04:53:45;;;;;;;12.32;7.80;;;12.80;99.90;;;;;;4843863;29;20056;-94
2023/05/14 04:56:10;;;;;;;14.35;9.50;;;12.80;99.90;;;;;;4842913;29;20145;-94
2023/05/14 04:58:36;;;;;;;14.05;8.15;;;12.70;99.90;;;;;;4842806;29;20049;-94
2023/05/14 05:01:04;;;;;;;11.13;7.75;;;12.80;99.90;;;;;;4843995;29;20128;-94
2023/05/14 05:03:30;;;;;;;18.95;10.48;;;12.70;99.90;;;;;;4842510;29;20045;-94
2023/05/14 05:05:56;;;;;;;18.98;10.52;;;12.70;99.90;;;;;;4847060;29;20042;-94
2023/05/14 05:08:22;;;;;;;19.27;10.90;;;12.70;99.90;;;;;;4843422;29;20495;-94
2023/05/14 05:10:47;;;;;;;19.05;10.25;;;12.60;99.90;;;;;;4844122;29;20045;-93
2023/05/14 05:13:14;;;;;;;15.02;8.88;;;12.60;99.90;;;;;;4857441;29;20046;-94
2023/05/14 05:15:39;;;;;;;12.95;8.38;;;12.60;99.90;;;;;;4860203;29;20057;-93
2023/05/14 05:18:05;;;;;;;15.57;8.65;;;12.60;99.90;;;;;;4878292;29;20101;-94
2023/05/14 05:20:31;;;;;;;19.08;9.98;;;12.60;99.90;;;;;;4863199;29;20056;-94
2023/05/14 05:22:57;;;;;;;13.27;9.25;;;12.60;99.90;;;;;;4861890;29;20451;-94
2023/05/14 05:25:22;;;;;;;18.00;9.95;;;12.60;99.90;;;;;;4856585;29;20042;-93
2023/05/14 05:27:48;;;;;;;12.98;8.95;;;12.60;99.90;;;;;;4860603;29;20045;-94
2023/05/14 05:30:13;;;;;;;16.23;8.98;;;12.60;99.90;;;;;;4860937;29;20038;-93
2023/05/14 05:32:39;;;;;;;14.70;9.23;;;12.60;99.90;;;;;;4847102;29;20052;-94
2023/05/14 05:35:05;;;;;;;18.30;10.07;;;12.60;99.90;;;;;;4843006;29;20108;-93
2023/05/14 05:37:31;;;;;;;14.18;9.32;;;12.70;99.90;;;;;;4872946;29;20061;-94
2023/05/14 05:39:57;;;;;;;15.70;9.00;;;12.60;99.90;;;;;;4843717;29;20049;-95
2023/05/14 05:42:23;;;;;;;14.00;9.25;;;12.70;99.90;;;;;;4843480;29;20049;-94
2023/05/14 05:44:49;;;;;;;16.38;9.23;;;12.70;99.90;;;;;;4842341;29;20042;-93
2023/05/14 05:47:15;;;;;;;16.17;9.02;;;12.70;99.90;;;;;;4873029;29;20041;-92
2023/05/14 05:49:41;;;;;;;16.30;8.88;;;12.70;99.90;;;;;;4855427;29;20077;-94
2023/05/14 05:52:07;;;;;;;14.77;8.95;;;12.70;99.90;;;;;;4848369;29;20056;-94
2023/05/14 05:54:35;;;;;;;21.55;8.80;;;12.80;99.90;;;;;;4843073;29;20086;-94
2023/05/14 05:57:01;;;;;;;18.27;9.18;;;12.80;99.90;;;;;;4873708;29;20077;-94
2023/05/14 05:59:26;;;;;;;14.27;8.50;;;12.80;99.90;;;;;;4845771;29;20231;-94
2023/05/14 06:01:52;;;;;;;16.13;7.88;;;12.90;99.90;;;;;;4851457;29;20049;-94
2023/05/14 06:04:17;;;;;;;13.93;7.90;;;12.90;99.90;;;;;;4857506;29;20049;-93
2023/05/14 06:06:43;;;;;;;22.48;7.93;;;12.90;99.90;;;;;;4842944;29;20542;-93
2023/05/14 06:09:09;;;;;;;17.85;8.10;;;12.90;99.90;;;;;;4859165;29;20057;-93
2023/05/14 06:11:35;;;;;;;15.55;8.07;;;13.00;99.90;;;;;;4858041;29;20443;-93
2023/05/14 06:14:00;;;;;;;23.10;7.97;;;13.00;99.90;;;;;;4847460;29;20581;-93
2023/05/14 06:16:26;;;;;;;14.13;7.65;;;13.00;99.90;;;;;;4854202;29;20129;-92
2023/05/14 06:18:53;;;;;;;15.98;7.68;;;13.10;99.90;;;;;;4842474;29;20521;-90
2023/05/14 06:21:18;;;;;;;18.92;7.90;;;13.10;99.90;;;;;;4843274;29;20046;-91
2023/05/14 06:23:44;;;;;;;22.98;7.47;;;13.20;99.90;;;;;;4872515;29;20062;-93
2023/05/14 06:26:13;;;;;;;14.57;7.43;;;13.20;99.90;;;;;;4842699;29;20125;-92
2023/05/14 06:28:38;;;;;;;15.65;7.60;;;13.20;99.90;;;;;;4842102;29;20046;-93
2023/05/14 06:31:04;;;;;;;14.07;7.20;;;13.30;99.90;;;;;;4855241;29;20048;-90
2023/05/14 06:40:49;;;;;;;16.85;7.72;;;13.50;99.90;;;;;;4848029;24;20046;-92
2023/05/14 06:43:18;;;;;;;20.25;8.13;;;13.50;99.90;;;;;;4858894;29;20086;-92
2023/05/14 06:46:04;;;;;;;17.65;7.45;;;13.60;99.90;;;;;;4858018;29;20052;-93
2023/05/14 06:48:30;;;;;;;16.45;7.05;;;13.70;99.90;;;;;;4859324;29;20067;-92
2023/05/14 06:51:02;;;;;;;14.25;6.63;;;13.80;99.90;;;;;;4864665;29;20558;-92
2023/05/14 06:53:31;;;;;;;14.57;7.10;;;13.80;99.90;;;;;;4863430;29;20050;-93
2023/05/14 06:56:14;;;;;;;21.10;7.72;;;13.90;99.90;;;;;;4855868;29;20057;-92
2023/05/14 06:58:43;;;;;;;13.30;7.50;;;14.00;99.90;;;;;;4850659;29;20130;-91
2023/05/14 07:01:09;;;;;;;16.38;7.50;;;14.00;99.90;;;;;;4853634;29;20387;-90
2023/05/14 07:03:35;;;;;;;23.30;8.65;;;14.10;99.90;;;;;;4862279;29;20101;-89
2023/05/14 07:06:00;;;;;;;19.23;8.70;;;14.10;99.90;;;;;;4855473;29;20050;-89
2023/05/14 07:08:26;;;;;;;19.27;8.50;;;14.20;99.90;;;;;;4874827;29;20061;-92
2023/05/14 07:10:52;;;;;;;20.83;8.77;;;14.30;99.90;;;;;;4844579;29;20050;-91
2023/05/14 07:13:17;;;;;;;18.00;8.82;;;14.30;99.90;;;;;;4845441;29;20128;-92
2023/05/14 07:15:43;;;;;;;15.13;6.80;;;14.30;99.90;;;;;;4848712;29;20062;-93
2023/05/14 07:18:09;;;;;;;23.15;8.50;;;14.30;99.90;;;;;;4848967;29;20057;-93
2023/05/14 07:20:37;;;;;;;12.50;6.75;;;14.40;99.90;;;;;;4864026;29;20056;-92
2023/05/14 07:23:05;;;;;;;14.73;7.63;;;14.40;99.90;;;;;;4861965;29;20053;-92
2023/05/14 07:25:53;;;;;;;11.45;6.95;;;14.40;99.90;;;;;;4844686;29;20049;-93
2023/05/14 07:28:21;;;;;;;18.52;8.30;;;14.50;99.90;;;;;;4845929;29;20580;-92
2023/05/14 07:30:47;;;;;;;23.92;8.00;;;14.60;99.90;;;;;;4849262;29;20049;-91
2023/05/14 07:33:12;;;;;;;12.25;6.60;;;14.60;99.90;;;;;;4847251;29;20052;-92
2023/05/14 07:35:38;;;;;;;14.43;7.45;;;14.70;99.90;;;;;;4862337;29;20048;-91
2023/05/14 07:38:04;;;;;;;11.38;6.70;;;14.70;99.90;;;;;;4845196;29;20062;-91
2023/05/14 07:40:30;;;;;;;13.88;7.25;;;14.70;99.90;;;;;;4850145;29;20046;-92
2023/05/14 07:42:56;;;;;;;14.60;7.18;;;14.80;99.90;;;;;;4854215;29;20052;-92
2023/05/14 07:45:24;;;;;;;14.05;7.05;;;14.90;99.90;;;;;;4846162;29;20506;-91
2023/05/14 07:47:56;;;;;;;18.33;7.18;;;14.90;99.90;;;;;;4864766;24;20041;-90
2023/05/14 07:50:22;;;;;;;14.32;6.80;;;15.00;99.90;;;;;;4861496;29;20132;-91
2023/05/14 07:52:50;;;;;;;11.95;5.95;;;15.00;99.90;;;;;;4850235;29;20045;-93
2023/05/14 07:55:15;;;;;;;15.48;6.50;;;15.10;99.90;;;;;;4849877;24;20526;-92
2023/05/14 07:57:41;;;;;;;17.02;6.55;;;15.20;99.90;;;;;;4854823;29;20057;-90
2023/05/14 08:00:07;;;;;;;16.42;6.95;;;15.20;99.90;;;;;;4861103;29;20077;-89
2023/05/14 08:02:51;;;;;;;17.77;6.00;;;15.30;99.90;;;;;;4843346;29;20046;-90
2023/05/14 08:09:16;;;;;;;;;;;15.40;99.90;;;;;;4824289;29;20431;-93
2023/05/14 08:11:44;;;;;;;14.00;6.77;;;15.50;99.90;;;;;;4814730;29;19933;-90
2023/05/14 08:14:54;;;;;;;15.27;6.45;;;15.60;99.90;;;;;;4843776;29;20050;-91
2023/05/14 08:17:20;;;;;;;14.98;6.35;;;15.80;99.90;;;;;;4843858;29;20486;-90
2023/05/14 08:19:45;;;;;;;12.20;6.22;;;15.80;99.90;;;;;;4844449;29;20182;-90
2023/05/14 08:22:13;;;;;;;15.27;6.53;;;16.00;99.90;;;;;;4843711;29;20102;-93
2023/05/14 08:24:48;;;;;;;12.40;6.20;;;16.10;99.90;;;;;;4844088;29;20145;-94
2023/05/14 09:31:46;;;;;;;12.38;5.60;;;17.90;99.90;;;;;;5728244;23;19928;-91
2023/05/14 10:28:00;;;;;;;9.73;4.60;;;19.30;94.10;;;;;;5896081;24;20059;-92
2023/05/14 11:10:55;;;;;;;8.52;4.50;;;20.40;95.60;;;;;;4882698;24;20033;-91
2023/05/14 11:13:35;;;;;;;10.40;4.60;;;20.50;96.30;;;;;;4825928;29;20047;-91
2023/05/14 11:19:21;;;;;;;11.48;5.07;;;20.70;96.10;;;;;;4837422;24;20059;-91
2023/05/14 11:21:46;;;;;;;11.07;4.28;;;20.80;96.60;;;;;;4804883;29;20069;-91
2023/05/14 11:30:45;;;;;;;11.55;4.82;;;20.90;93.30;;;;;;4951976;24;20064;-89
2023/05/14 11:33:17;;;;;;;14.13;5.10;;;20.90;92.40;;;;;;4842494;29;20042;-90
2023/05/14 11:36:09;;;;;;;10.13;4.95;;;21.00;91.50;;;;;;4843849;29;20094;-91
2023/05/14 11:39:08;;;;;;;12.27;4.90;;;21.10;93.50;;;;;;4845172;29;20113;-88
2023/05/14 11:41:46;;;;;;;11.38;4.85;;;21.20;93.50;;;;;;4846063;29;20515;-91
2023/05/14 11:44:11;;;;;;;8.43;4.85;;;21.20;94.10;;;;;;4851456;29;20182;-90
2023/05/14 11:46:52;;;;;;;10.63;5.43;;;21.30;95.40;;;;;;4859107;29;20136;-89
2023/05/14 11:49:28;;;;;;;9.95;4.93;;;21.40;95.60;;;;;;4851651;29;20411;-92
2023/05/14 11:52:11;;;;;;;10.43;5.10;;;21.40;93.40;;;;;;4844466;29;20054;-90
2023/05/14 12:10:21;;;;;;;14.25;5.05;;;21.70;91.80;;;;;;4862688;24;20050;31
2023/05/14 14:17:42;;;;;;;4.50;2.50;;;23.90;90.20;;;;;;5059052;23;20042;-89
2023/05/14 14:20:09;;;;;;;5.47;3.03;;;23.80;92.10;;;;;;4811102;29;20055;-90
2023/05/14 14:22:35;;;;;;;6.20;2.70;;;23.90;94.30;;;;;;4821478;29;20134;-88
2023/05/14 14:36:15;;;;;;;9.30;2.55;;;23.90;91.80;;;;;;5697297;24;20054;-91
2023/05/14 14:38:47;;;;;;;12.25;3.42;;;23.90;89.60;;;;;;5136967;24;21026;-90
2023/05/14 15:10:36;;;;;;;10.10;3.70;;;24.30;96.10;;;;;;5457176;24;20062;-86
2023/05/14 15:13:25;;;;;;;8.02;2.45;;;24.30;97.80;;;;;;4807589;29;20404;-91
2023/05/14 16:30:19;;;;;;;6.45;4.22;;;24.50;99.90;;;;;;3454009;24;20017;31
2023/05/14 16:48:55;;;;;;;14.52;8.82;;;24.10;95.60;;;;;;4788939;29;20142;-94
2023/05/14 17:06:45;;;;;;;12.25;8.85;;;24.00;95.60;;;;;;1736070;24;20036;31
2023/05/14 17:09:11;;;;;;;37.10;21.70;;;23.80;95.70;;;;;;4834864;29;20055;-93
2023/05/14 17:11:37;;;;;;;12.18;10.07;;;23.60;94.10;;;;;;4805684;29;20050;-94
2023/05/14 17:14:11;;;;;;;18.25;11.30;;;23.50;97.20;;;;;;4809382;29;20527;-93
2023/05/14 17:16:39;;;;;;;13.70;11.38;;;23.40;94.50;;;;;;4806827;29;20522;-94
2023/05/14 17:19:23;;;;;;;17.33;12.50;;;23.20;95.60;;;;;;4802047;29;20055;-94
2023/05/14 17:22:12;;;;;;;16.10;11.82;;;23.00;96.30;;;;;;4805788;29;20085;-94
2023/05/14 17:51:11;;;;;;;18.00;15.32;;;21.70;98.90;;;;;;5167144;24;20057;-94
2023/05/14 18:04:59;;;;;;;19.10;16.15;;;21.70;97.30;;;;;;4812688;24;20416;-93
2023/05/14 18:27:14;;;;;;;21.02;18.30;;;20.80;97.60;;;;;;4821719;29;20061;-94
2023/05/14 18:30:15;;;;;;;20.08;17.60;;;20.70;98.30;;;;;;4824118;29;20061;-93
2023/05/14 18:33:22;;;;;;;25.08;21.23;;;20.60;94.90;;;;;;4833050;29;20080;-94
2023/05/14 18:35:57;;;;;;;21.15;18.90;;;20.50;98.30;;;;;;4758844;30;20175;-94
2023/05/14 18:54:45;;;;;;;;;;;;;;;;;;;;;
2023/05/14 19:00:57;;;;;;;24.35;21.75;;;20.40;99.90;;;;;;4809871;29;20111;-93
2023/05/14 19:03:24;;;;;;;22.20;19.90;;;20.30;99.90;;;;;;4840515;29;20061;-87
2023/05/14 19:05:52;;;;;;;22.67;20.48;;;20.30;99.90;;;;;;4812192;29;21215;-87
2023/05/14 19:08:17;;;;;;;23.27;20.88;;;20.40;99.90;;;;;;4809173;29;20136;-91
2023/05/14 19:10:43;;;;;;;20.67;18.40;;;20.40;99.90;;;;;;4809975;29;20088;-88
